Time;durP1;ratioP1;P1;durP2;ratioP2;P2;SDS_P1;SDS_P2;PMS_P1;PMS_P2;Temp;Humidity;BMP_temperature;BMP_pressure;BME280_temperature;BME280_humidity;BME280_pressure;Samples;Min_cycle;Max_cycle;Signal;HPM_P1;HPM_P2
2022/05/08 00:02:02;;;;;;;3.50;2.50;;;;;;;21.22;45.64;100302.94;1805923;79;21590;-68
2022/05/08 00:04:29;;;;;;;3.50;3.05;;;;;;;21.21;45.62;100301.30;1795122;79;20986;-68
2022/05/08 00:06:55;;;;;;;2.55;2.35;;;;;;;21.20;45.64;100299.11;1805961;79;21514;-69
2022/05/08 00:09:23;;;;;;;2.80;2.60;;;;;;;21.20;45.61;100293.70;1805836;79;21030;-67
2022/05/08 00:11:52;;;;;;;3.08;2.77;;;;;;;21.20;45.61;100295.59;1804864;79;20987;-68
2022/05/08 00:14:19;;;;;;;3.05;2.70;;;;;;;21.19;45.59;100296.66;1798015;79;21483;-68
2022/05/08 00:16:46;;;;;;;3.00;2.62;;;;;;;21.18;45.58;100295.80;1797920;79;21080;-67
2022/05/08 00:19:12;;;;;;;3.27;2.98;;;;;;;21.18;45.59;100299.04;1797872;79;21126;-67
2022/05/08 00:21:40;;;;;;;2.80;2.60;;;;;;;21.17;45.57;100295.52;1773225;79;20979;-68
2022/05/08 00:24:07;;;;;;;2.85;2.60;;;;;;;21.17;45.57;100283.86;1766341;81;21015;-67
2022/05/08 00:26:33;;;;;;;2.87;2.67;;;;;;;21.16;45.57;100289.80;1766283;81;21022;-68
2022/05/08 00:29:00;;;;;;;2.60;2.40;;;;;;;21.15;45.57;100284.62;1766368;81;21109;-68
2022/05/08 00:31:27;;;;;;;3.15;2.50;;;;;;;21.15;45.53;100281.91;1766250;81;21129;-68
2022/05/08 00:33:54;;;;;;;3.20;2.40;;;;;;;21.14;45.56;100285.69;1766285;81;21026;-67
2022/05/08 00:36:20;;;;;;;2.90;2.70;;;;;;;21.13;45.54;100278.62;1766722;81;21002;-68
2022/05/08 00:38:47;;;;;;;2.80;2.60;;;;;;;21.12;45.55;100286.44;1767291;79;21030;-68
2022/05/08 00:41:13;;;;;;;2.75;2.47;;;;;;;21.12;45.53;100290.48;1766379;81;21097;-69
2022/05/08 00:43:40;;;;;;;3.17;2.87;;;;;;;21.11;45.54;100282.06;1766239;81;21202;-68
2022/05/08 00:46:12;;;;;;;3.17;2.90;;;;;;;21.10;45.51;100288.53;1766364;81;21084;-68
2022/05/08 00:48:41;;;;;;;2.77;2.58;;;;;;;21.09;45.55;100282.28;1766475;81;20995;-67
2022/05/08 00:51:09;;;;;;;2.67;2.47;;;;;;;21.09;45.51;100282.81;1766271;81;21038;-67
2022/05/08 00:53:48;;;;;;;3.10;2.80;;;;;;;21.07;45.52;100275.47;1766317;81;21019;-67
2022/05/08 00:56:15;;;;;;;2.77;2.58;;;;;;;21.06;45.52;100281.94;1767467;79;21503;-68
2022/05/08 00:58:43;;;;;;;2.90;2.70;;;;;;;21.05;45.53;100277.03;1766196;81;21062;-67
2022/05/08 01:01:10;;;;;;;2.70;2.50;;;;;;;21.05;45.48;100271.63;1766255;81;21037;-68
2022/05/08 01:03:38;;;;;;;2.60;2.40;;;;;;;21.04;45.48;100273.23;1777044;79;21081;-69
2022/05/08 01:06:08;;;;;;;3.02;2.65;;;;;;;21.03;45.52;100267.52;1797971;79;21338;-68
2022/05/08 01:08:37;;;;;;;2.95;2.72;;;;;;;21.02;45.49;100276.15;1797738;79;22040;-67
2022/05/08 01:11:06;;;;;;;3.08;2.77;;;;;;;21.02;45.49;100258.59;1796872;79;21023;-68
2022/05/08 01:13:32;;;;;;;2.75;2.45;;;;;;;21.00;45.50;100262.86;1801150;79;21017;-69
2022/05/08 01:16:00;;;;;;;2.70;2.50;;;;;;;21.01;45.48;100271.78;1802979;79;21038;-67
2022/05/08 01:18:27;;;;;;;2.70;2.40;;;;;;;21.00;45.49;100255.30;1802939;79;21001;-68
2022/05/08 01:20:54;;;;;;;2.60;2.40;;;;;;;20.98;45.48;100254.16;1803004;79;21230;-67
2022/05/08 01:23:23;;;;;;;2.42;2.22;;;;;;;20.98;45.51;100256.86;1802938;79;20990;-68
2022/05/08 01:25:55;;;;;;;2.55;2.35;;;;;;;20.98;45.51;100261.45;1803079;79;21456;-68
2022/05/08 01:28:23;;;;;;;3.05;2.75;;;;;;;20.97;45.45;100260.59;1801790;79;21045;-67
2022/05/08 01:30:51;;;;;;;2.62;2.42;;;;;;;20.96;45.49;100253.56;1802929;79;21648;-68
2022/05/08 01:33:18;;;;;;;2.55;2.35;;;;;;;20.95;45.47;100258.65;1802921;79;21065;-68
2022/05/08 01:35:45;;;;;;;2.70;2.50;;;;;;;20.95;45.47;100252.42;1802880;79;21043;-67
2022/05/08 01:38:14;;;;;;;3.08;2.77;;;;;;;20.93;45.46;100256.70;1802884;79;21010;-67
2022/05/08 01:40:41;;;;;;;2.70;2.50;;;;;;;20.93;45.52;100254.53;1802845;79;21003;-67
2022/05/08 01:43:07;;;;;;;2.58;2.37;;;;;;;20.92;45.48;100249.66;1802895;79;21018;-68
2022/05/08 01:45:34;;;;;;;3.22;2.67;;;;;;;20.91;45.49;100243.13;1801631;79;21040;-67
2022/05/08 01:50:45;;;;;;;3.10;2.80;;;;;;;20.89;45.53;100250.09;1803252;79;21092;-67
2022/05/08 01:53:12;;;;;;;2.67;2.27;;;;;;;20.88;45.50;100248.46;1802990;79;21021;-67
2022/05/08 01:55:38;;;;;;;2.60;2.40;;;;;;;20.88;45.49;100249.81;1802970;79;21050;-67
2022/05/08 01:58:05;;;;;;;2.40;2.20;;;;;;;20.88;45.53;100251.16;1802945;79;21316;-68
2022/05/08 02:00:32;;;;;;;2.80;2.60;;;;;;;20.87;45.49;100248.14;1802790;79;21581;-68
2022/05/08 02:03:00;;;;;;;2.52;2.33;;;;;;;20.85;45.49;100246.20;1790726;79;20994;-67
2022/05/08 02:05:28;;;;;;;2.60;2.40;;;;;;;20.85;45.51;100242.68;1802964;79;20983;-68
2022/05/08 02:07:55;;;;;;;3.87;3.00;;;;;;;20.84;45.50;100253.98;1802932;79;20979;-67
2022/05/08 02:10:23;;;;;;;2.72;2.40;;;;;;;20.83;45.47;100253.70;1802824;79;21128;-68
2022/05/08 02:12:49;;;;;;;3.17;2.87;;;;;;;20.82;45.50;100250.68;1801108;79;21037;-67
2022/05/08 02:15:16;;;;;;;2.70;2.50;;;;;;;20.81;45.51;100255.27;1802785;79;21035;-67
2022/05/08 02:17:43;;;;;;;2.95;2.45;;;;;;;20.81;45.52;100254.45;1802893;79;20991;-68
2022/05/08 02:20:09;;;;;;;2.70;2.50;;;;;;;20.80;45.53;100252.28;1785776;79;21030;-68
2022/05/08 02:22:39;;;;;;;3.17;2.70;;;;;;;20.80;45.55;100252.28;1771114;81;21772;-68
2022/05/08 02:25:07;;;;;;;2.72;2.52;;;;;;;20.79;45.52;100247.91;1771083;81;21530;-68
2022/05/08 02:27:38;;;;;;;2.60;2.30;;;;;;;20.79;45.52;100251.96;1771535;80;21026;-68
2022/05/08 02:30:07;;;;;;;2.45;2.25;;;;;;;20.78;45.50;100253.53;1770614;81;21077;-68
2022/05/08 02:32:37;;;;;;;2.67;2.47;;;;;;;20.77;45.49;100260.81;1771075;81;21034;-68
2022/05/08 02:35:06;;;;;;;2.58;2.37;;;;;;;20.77;45.50;100262.69;1771158;81;21135;-68
2022/05/08 02:37:34;;;;;;;2.62;2.20;;;;;;;20.76;45.52;100269.12;1772225;79;20995;-67
2022/05/08 02:40:00;;;;;;;2.50;2.30;;;;;;;20.74;45.53;100267.17;1771131;81;21077;-69
2022/05/08 02:42:27;;;;;;;2.80;2.17;;;;;;;20.74;45.55;100276.62;1771143;81;21010;-68
2022/05/08 02:44:54;;;;;;;2.60;2.40;;;;;;;20.73;45.53;100267.70;1771225;80;21037;-68
2022/05/08 02:47:21;;;;;;;2.85;2.40;;;;;;;20.73;45.55;100266.89;1771255;81;21125;-68
2022/05/08 02:49:48;;;;;;;2.62;2.40;;;;;;;20.72;45.54;100267.92;1771162;81;20994;-68
2022/05/08 02:52:15;;;;;;;2.50;2.30;;;;;;;20.71;45.54;100264.94;1771221;81;20999;-68
2022/05/08 02:54:42;;;;;;;2.65;2.45;;;;;;;20.70;45.54;100265.44;1772104;79;21085;-69
2022/05/08 02:59:54;;;;;;;2.50;2.30;;;;;;;20.70;45.55;100267.32;1771267;81;21721;-68
2022/05/08 03:02:20;;;;;;;2.60;2.40;;;;;;;20.68;45.58;100270.23;1778101;79;21069;-68
2022/05/08 03:04:47;;;;;;;2.85;2.25;;;;;;;20.67;45.56;100269.95;1802714;79;21045;-68
2022/05/08 03:07:13;;;;;;;2.62;2.42;;;;;;;20.67;45.58;100278.05;1802839;79;21605;-68
2022/05/08 03:09:40;;;;;;;2.35;2.17;;;;;;;20.67;45.59;100270.45;1802732;79;21069;-68
2022/05/08 03:12:08;;;;;;;2.27;2.10;;;;;;;20.66;45.62;100271.52;1801909;79;21152;-68
2022/05/08 03:14:37;;;;;;;2.50;2.30;;;;;;;20.65;45.62;100268.00;1797979;79;21506;-68
2022/05/08 03:17:05;;;;;;;3.47;3.00;;;;;;;20.65;45.62;100276.09;1797265;79;21078;-68
2022/05/08 03:19:31;;;;;;;2.55;2.30;;;;;;;20.64;45.62;100278.48;1797355;79;21018;-69
2022/05/08 03:21:58;;;;;;;2.87;2.30;;;;;;;20.65;45.66;100283.34;1797308;79;21085;-68
2022/05/08 03:24:27;;;;;;;2.83;2.27;;;;;;;20.64;45.67;100285.23;1797190;79;21128;-68
2022/05/08 03:28:35;;;;;;;2.70;2.50;;;;;;;20.67;45.69;100287.50;1775673;79;23150;-68
2022/05/08 03:31:02;;;;;;;2.40;2.20;;;;;;;20.64;45.70;100296.02;1727061;83;21038;-68
2022/05/08 03:33:29;;;;;;;3.62;2.50;;;;;;;20.65;45.70;100296.84;1727300;83;21787;-68
2022/05/08 03:35:56;;;;;;;2.75;2.55;;;;;;;20.65;45.69;100295.49;1727029;83;21053;-68
2022/05/08 03:38:22;;;;;;;2.45;2.25;;;;;;;20.64;45.69;100297.91;1727123;82;20998;-68
2022/05/08 03:40:49;;;;;;;2.83;2.52;;;;;;;20.62;45.71;100294.89;1727071;82;21018;-67
2022/05/08 03:43:16;;;;;;;3.35;2.70;;;;;;;20.63;45.72;100297.09;1727225;83;21596;-67
2022/05/08 03:45:43;;;;;;;2.92;2.70;;;;;;;20.64;45.73;100298.72;1728258;81;21588;-67
2022/05/08 03:48:10;;;;;;;3.67;2.90;;;;;;;20.64;45.74;100301.95;1727125;83;21069;-67
2022/05/08 03:50:36;;;;;;;2.37;2.10;;;;;;;20.63;45.74;100298.44;1727320;83;21054;-68
2022/05/08 03:53:03;;;;;;;2.62;2.42;;;;;;;20.62;45.74;100296.23;1727207;83;21455;-68
2022/05/08 03:55:30;;;;;;;2.52;2.33;;;;;;;20.64;45.77;100303.30;1727136;83;21093;-67
2022/05/08 03:57:56;;;;;;;2.87;2.67;;;;;;;20.63;45.78;100299.78;1727067;83;21140;-67
2022/05/08 04:00:23;;;;;;;3.72;2.42;;;;;;;20.64;45.76;100300.60;1727036;83;21013;-68
2022/05/08 04:02:49;;;;;;;2.67;2.42;;;;;;;20.64;45.76;100295.20;1740719;81;21034;-68
2022/05/08 04:05:16;;;;;;;2.70;2.50;;;;;;;20.65;45.77;100295.49;1757261;81;21479;-68
2022/05/08 04:07:44;;;;;;;2.45;2.25;;;;;;;20.66;45.75;100291.76;1757126;81;21013;-68
2022/05/08 04:10:10;;;;;;;2.42;2.22;;;;;;;20.66;45.73;100295.28;1757436;81;21138;-68
2022/05/08 04:12:37;;;;;;;2.75;2.50;;;;;;;20.66;45.73;100293.92;1757139;81;21562;-68
2022/05/08 04:16:15;;;;;;;2.37;2.15;;;;;;;20.66;45.74;100295.28;1757225;81;21120;-68
2022/05/08 04:17:38;;;;;;;;;;;;;;;20.68;45.72;100295.06;1756955;81;21495;-67
2022/05/08 04:20:08;;;;;;;2.60;2.40;;;;;;;20.66;45.72;100296.62;1729334;81;20505;-67
2022/05/08 04:25:20;;;;;;;3.50;2.50;;;;;;;20.67;45.75;100290.70;1694887;84;21009;-68
2022/05/08 04:27:47;;;;;;;3.72;2.40;;;;;;;20.66;45.75;100303.38;1690315;84;21034;-68
2022/05/08 04:30:13;;;;;;;2.72;2.52;;;;;;;20.66;45.78;100303.91;1687359;85;20989;-67
2022/05/08 04:32:40;;;;;;;2.72;2.52;;;;;;;20.66;45.80;100302.03;1722182;83;21582;-67
2022/05/08 04:35:07;;;;;;;2.95;2.67;;;;;;;20.67;45.78;100305.55;1723505;81;21275;-67
2022/05/08 04:37:34;;;;;;;3.55;2.70;;;;;;;20.68;45.78;100303.16;1722300;83;21006;-68
2022/05/08 04:40:01;;;;;;;2.90;2.60;;;;;;;20.67;45.80;100298.80;1721601;83;21017;-68
2022/05/08 04:42:27;;;;;;;3.05;2.70;;;;;;;20.68;45.80;100313.43;1721665;83;21113;-68
2022/05/08 04:44:54;;;;;;;3.17;2.75;;;;;;;20.68;45.79;100310.73;1721614;83;21065;-67
2022/05/08 04:47:21;;;;;;;2.52;2.30;;;;;;;20.70;45.79;100315.91;1687094;85;21150;-67
2022/05/08 04:49:48;;;;;;;3.52;2.40;;;;;;;20.69;45.80;100305.65;1686724;85;21029;-67
2022/05/08 04:52:14;;;;;;;3.08;2.45;;;;;;;20.70;45.78;100307.81;1687668;83;21021;-67
2022/05/08 04:54:41;;;;;;;3.00;2.80;;;;;;;20.71;45.79;100305.43;1687217;85;21096;-67
2022/05/08 04:57:08;;;;;;;2.55;2.35;;;;;;;20.71;45.80;100310.30;1686785;85;21053;-68
2022/05/08 04:59:34;;;;;;;4.25;2.70;;;;;;;20.72;45.82;100308.42;1686683;85;21139;-68
2022/05/08 05:02:02;;;;;;;2.83;2.55;;;;;;;20.73;45.82;100312.25;1701011;82;21010;-67
2022/05/08 05:04:29;;;;;;;3.35;3.05;;;;;;;20.75;45.83;100309.34;1715538;83;21578;-67
2022/05/08 05:06:55;;;;;;;2.80;2.60;;;;;;;20.76;45.81;100319.89;1715474;83;21101;-67
2022/05/08 05:09:22;;;;;;;2.80;2.58;;;;;;;20.76;45.82;100310.97;1714414;83;21080;-68
2022/05/08 05:11:48;;;;;;;2.92;2.58;;;;;;;20.76;45.81;100313.14;1716800;82;21150;-66
2022/05/08 05:14:16;;;;;;;3.27;2.90;;;;;;;20.78;45.82;100319.67;1715383;83;21002;-67
2022/05/08 05:16:43;;;;;;;3.62;2.50;;;;;;;20.78;45.82;100314.27;1715480;83;21106;-68
2022/05/08 05:19:10;;;;;;;3.27;2.40;;;;;;;20.79;45.85;100321.34;1715607;83;21021;-68
2022/05/08 05:21:37;;;;;;;2.55;2.35;;;;;;;20.79;45.87;100312.71;1715663;83;21002;-68
2022/05/08 05:24:05;;;;;;;2.95;2.50;;;;;;;20.79;45.88;100313.24;1715573;83;21148;-67
2022/05/08 05:26:31;;;;;;;2.37;2.17;;;;;;;20.80;45.91;100317.58;1707269;83;21097;-68
2022/05/08 05:28:58;;;;;;;3.05;2.75;;;;;;;20.79;45.93;100316.77;1686811;85;21025;-68
2022/05/08 05:31:25;;;;;;;2.90;2.70;;;;;;;20.81;45.92;100315.20;1686884;85;21612;-68
2022/05/08 05:33:52;;;;;;;2.55;2.30;;;;;;;20.82;45.93;100312.78;1686644;85;21045;-67
2022/05/08 05:36:18;;;;;;;2.90;2.42;;;;;;;20.82;45.92;100314.13;1686914;85;21965;-67
2022/05/08 05:38:45;;;;;;;3.17;2.83;;;;;;;20.83;45.95;100313.62;1686792;85;21080;-68
2022/05/08 05:41:11;;;;;;;3.33;2.90;;;;;;;20.84;45.96;100312.56;1686709;85;21141;-68
2022/05/08 05:43:38;;;;;;;2.42;2.20;;;;;;;20.84;45.99;100307.98;1687763;83;21045;-67
2022/05/08 05:48:49;;;;;;;2.40;2.20;;;;;;;20.86;45.99;100311.31;1686797;85;22067;-68
2022/05/08 05:51:15;;;;;;;3.25;2.80;;;;;;;20.87;45.99;100310.78;1686720;85;21177;-67
2022/05/08 05:53:43;;;;;;;3.17;2.83;;;;;;;20.87;46.00;100309.44;1686644;85;21014;-67
2022/05/08 05:56:09;;;;;;;2.75;2.55;;;;;;;20.87;46.01;100308.91;1686815;85;21050;-68
2022/05/08 05:58:37;;;;;;;2.55;2.35;;;;;;;20.88;46.01;100318.67;1686768;85;21022;-67
2022/05/08 06:01:03;;;;;;;3.02;2.75;;;;;;;20.90;46.08;100315.22;1690581;83;21154;-68
2022/05/08 06:03:30;;;;;;;2.90;2.60;;;;;;;20.93;46.05;100328.27;1715470;83;21017;-68
2022/05/08 06:05:57;;;;;;;2.65;2.42;;;;;;;20.94;46.10;100320.48;1687140;83;20995;-67
2022/05/08 06:08:23;;;;;;;3.12;2.83;;;;;;;20.95;46.20;100330.75;1715323;83;21123;-68
2022/05/08 06:10:50;;;;;;;3.05;2.75;;;;;;;20.97;46.26;100322.72;1715465;83;21092;-68
2022/05/08 06:13:17;;;;;;;3.37;3.08;;;;;;;20.98;46.30;100317.63;1715406;83;21428;-68
2022/05/08 06:15:44;;;;;;;2.67;2.47;;;;;;;21.00;46.36;100324.16;1715325;83;21034;-68
2022/05/08 06:18:10;;;;;;;2.90;2.60;;;;;;;21.02;46.43;100327.47;1714435;83;21118;-68
2022/05/08 06:20:38;;;;;;;3.67;2.75;;;;;;;21.03;46.47;100325.59;1715352;83;20990;-68
2022/05/08 06:23:05;;;;;;;2.95;2.62;;;;;;;21.04;46.49;100321.31;1715536;83;21013;-68
2022/05/08 06:25:32;;;;;;;3.85;2.98;;;;;;;21.06;46.53;100325.16;1715607;83;21789;-67
2022/05/08 06:27:59;;;;;;;3.12;2.80;;;;;;;21.07;46.59;100318.69;1715191;82;21049;-68
2022/05/08 06:30:26;;;;;;;2.75;2.50;;;;;;;21.09;46.62;100327.39;1715459;83;21048;-68
2022/05/08 06:32:52;;;;;;;3.45;3.00;;;;;;;21.10;46.63;100320.42;1715704;83;21041;-67
2022/05/08 06:35:19;;;;;;;3.35;3.05;;;;;;;21.11;46.69;100319.38;1714382;83;21002;-67
2022/05/08 06:37:45;;;;;;;2.70;2.50;;;;;;;21.13;46.69;100319.98;1715519;83;21248;-68
2022/05/08 06:40:12;;;;;;;2.70;2.50;;;;;;;21.14;46.69;100321.63;1715412;83;20978;-67
2022/05/08 06:42:39;;;;;;;3.20;2.90;;;;;;;21.16;46.68;100326.80;1715576;83;21025;-68
2022/05/08 06:45:08;;;;;;;2.83;2.45;;;;;;;21.18;46.71;100332.27;1715459;83;21033;-68
2022/05/08 06:47:35;;;;;;;3.12;2.75;;;;;;;21.19;46.76;100325.02;1715495;83;21017;-68
2022/05/08 06:50:01;;;;;;;2.75;2.55;;;;;;;21.19;46.76;100320.44;1715472;83;21091;-68
2022/05/08 06:52:28;;;;;;;3.12;2.70;;;;;;;21.22;46.69;100327.26;1714267;83;21502;-67
2022/05/08 06:54:56;;;;;;;3.20;2.90;;;;;;;21.23;46.67;100326.72;1715304;83;21108;-67
2022/05/08 06:57:22;;;;;;;3.10;2.75;;;;;;;21.24;46.71;100322.45;1715463;83;21073;-68
2022/05/08 07:02:42;;;;;;;2.70;2.50;;;;;;;21.28;46.67;100325.00;1715544;83;21256;-68
2022/05/08 07:05:09;;;;;;;3.22;2.72;;;;;;;21.29;46.70;100323.97;1715368;83;21046;-67
2022/05/08 07:07:36;;;;;;;3.02;2.67;;;;;;;21.31;46.73;100326.45;1715438;83;21003;-68
2022/05/08 07:10:04;;;;;;;3.22;2.80;;;;;;;21.32;46.84;100334.84;1714402;83;21470;-68
2022/05/08 07:12:31;;;;;;;3.10;2.60;;;;;;;21.33;46.78;100320.30;1715556;83;21053;-67
2022/05/08 07:14:59;;;;;;;2.85;2.45;;;;;;;21.35;46.75;100320.36;1715448;83;21002;-68
2022/05/08 07:17:28;;;;;;;3.22;2.60;;;;;;;21.36;46.80;100322.03;1715502;83;21521;-67
2022/05/08 07:19:53;;;;;;;3.12;2.62;;;;;;;21.38;46.73;100321.27;1715614;83;21048;-67
2022/05/08 07:22:20;;;;;;;2.85;2.65;;;;;;;21.39;46.86;100328.31;1715658;83;21613;-69
2022/05/08 07:24:46;;;;;;;3.62;2.75;;;;;;;21.41;46.88;100326.21;1715288;83;21014;-67
2022/05/08 07:27:13;;;;;;;2.98;2.67;;;;;;;21.45;46.84;100331.21;1722333;81;21145;-68
2022/05/08 07:29:46;;;;;;;3.00;2.70;;;;;;;21.44;46.79;100331.74;1714082;83;21011;-67
2022/05/08 07:32:12;;;;;;;3.55;2.87;;;;;;;21.46;46.76;100329.64;1714030;82;21003;-68
2022/05/08 07:37:25;;;;;;;2.72;2.52;;;;;;;21.49;46.73;100330.52;1713894;83;21054;-67
2022/05/08 07:39:52;;;;;;;3.67;2.62;;;;;;;21.50;46.65;100328.63;1713813;83;21129;-68
2022/05/08 07:42:19;;;;;;;3.12;2.92;;;;;;;21.51;46.59;100332.47;1714904;82;21522;-67
2022/05/08 07:44:45;;;;;;;3.00;2.70;;;;;;;21.53;46.61;100330.91;1713882;83;21027;-67
2022/05/08 07:47:13;;;;;;;2.50;2.30;;;;;;;21.55;46.53;100331.50;1714083;83;21022;-69
2022/05/08 07:49:40;;;;;;;3.00;2.80;;;;;;;21.55;46.51;100335.02;1713830;83;21074;-67
2022/05/08 07:52:07;;;;;;;2.87;2.62;;;;;;;21.57;46.49;100330.20;1714208;82;21236;-67
2022/05/08 07:54:35;;;;;;;3.42;3.00;;;;;;;21.58;46.45;100331.06;1713919;82;20995;-68
2022/05/08 07:57:02;;;;;;;2.92;2.72;;;;;;;21.59;46.45;100338.95;1713961;82;21284;-68
2022/05/08 07:59:28;;;;;;;3.05;2.80;;;;;;;21.60;46.43;100335.17;1714885;82;21042;-68
2022/05/08 08:01:55;;;;;;;2.87;2.67;;;;;;;21.62;46.43;100337.66;1739702;82;21014;-67
2022/05/08 08:04:21;;;;;;;2.98;2.67;;;;;;;21.64;46.41;100336.09;1743517;81;21134;-67
2022/05/08 08:06:48;;;;;;;2.62;2.42;;;;;;;21.65;46.36;100335.84;1743381;81;21015;-67
2022/05/08 08:09:15;;;;;;;3.02;2.72;;;;;;;21.67;46.39;100340.52;1743486;81;21050;-68
2022/05/08 08:11:43;;;;;;;3.27;3.00;;;;;;;21.69;46.41;100342.47;1743515;81;21026;-69
2022/05/08 08:14:11;;;;;;;2.65;2.45;;;;;;;21.71;46.43;100348.47;1742980;81;21073;-67
2022/05/08 08:16:39;;;;;;;2.98;2.67;;;;;;;21.71;46.48;100339.02;1733989;82;21742;-68
2022/05/08 08:19:05;;;;;;;3.00;2.70;;;;;;;21.75;46.57;100340.20;1713973;82;21097;-68
2022/05/08 08:21:33;;;;;;;2.85;2.55;;;;;;;21.75;46.63;100340.20;1713971;83;21046;-68
2022/05/08 08:23:59;;;;;;;2.72;2.52;;;;;;;21.76;46.73;100339.13;1713933;83;21280;-68
2022/05/08 08:26:26;;;;;;;2.87;2.67;;;;;;;21.78;46.76;100337.02;1713970;82;21223;-67
2022/05/08 08:28:53;;;;;;;2.92;2.62;;;;;;;21.80;46.79;100337.62;1713960;83;21224;-68
2022/05/08 08:31:19;;;;;;;2.55;2.35;;;;;;;21.82;46.82;100329.29;1714026;82;21114;-69
2022/05/08 08:33:48;;;;;;;3.05;2.85;;;;;;;21.85;46.93;100338.84;1714926;82;21035;-68
2022/05/08 08:36:15;;;;;;;2.87;2.67;;;;;;;21.86;46.85;100333.72;1714028;83;21007;-68
2022/05/08 08:38:41;;;;;;;3.12;2.83;;;;;;;21.89;46.85;100325.98;1714002;83;21034;-68
2022/05/08 08:41:09;;;;;;;2.90;2.65;;;;;;;21.91;46.95;100327.11;1714114;83;21789;-68
2022/05/08 08:49:21;;;;;;;3.05;2.83;;;;;;;21.98;47.15;100331.87;1714274;82;21511;-68
2022/05/08 08:51:49;;;;;;;2.98;2.67;;;;;;;21.99;47.22;100318.66;1715063;82;21049;-68
2022/05/08 08:54:18;;;;;;;2.58;2.37;;;;;;;22.01;47.24;100312.50;1714096;83;21153;-68
2022/05/08 08:56:46;;;;;;;3.00;2.80;;;;;;;22.02;47.14;100315.52;1714170;83;21045;-68
2022/05/08 08:59:13;;;;;;;2.95;2.65;;;;;;;22.07;47.22;100315.63;1718989;82;21994;-68
2022/05/08 09:01:43;;;;;;;2.80;2.60;;;;;;;22.09;47.16;100312.16;1743527;81;21039;-68
2022/05/08 09:04:15;;;;;;;3.20;2.72;;;;;;;22.09;47.08;100308.11;1707563;83;21522;-67
2022/05/08 09:06:43;;;;;;;2.70;2.50;;;;;;;22.13;47.05;100320.66;1707879;84;21245;-67
2022/05/08 09:09:27;;;;;;;2.72;2.52;;;;;;;22.15;47.09;100307.72;1706975;84;21054;-68
2022/05/08 09:11:56;;;;;;;2.72;2.52;;;;;;;22.18;47.11;100304.56;1707751;84;21025;-68
2022/05/08 09:14:33;;;;;;;2.30;2.10;;;;;;;22.21;47.03;100305.97;1707942;84;21014;-68
2022/05/08 09:17:01;;;;;;;2.92;2.72;;;;;;;22.23;46.94;100294.38;1743582;82;21562;-67
2022/05/08 09:19:37;;;;;;;2.92;2.72;;;;;;;22.26;46.81;100298.84;1743917;81;21761;-68
2022/05/08 09:22:03;;;;;;;2.65;2.45;;;;;;;22.30;46.83;100295.15;1743552;81;21070;-68
2022/05/08 09:24:31;;;;;;;2.83;2.62;;;;;;;22.32;46.79;100297.09;1742936;81;21498;-68
2022/05/08 09:27:12;;;;;;;3.02;2.83;;;;;;;22.36;46.81;100309.09;1743429;82;21048;-69
2022/05/08 09:29:40;;;;;;;2.52;2.33;;;;;;;22.38;46.83;100305.63;1752941;81;21037;-67
2022/05/08 09:32:08;;;;;;;3.05;2.70;;;;;;;22.44;46.89;100295.22;1757065;81;21197;-68
2022/05/08 09:34:57;;;;;;;2.72;2.52;;;;;;;22.48;46.98;100292.88;1757137;81;20994;-68
2022/05/08 09:37:27;;;;;;;3.15;2.85;;;;;;;22.52;46.99;100292.20;1756944;81;21052;-68
2022/05/08 09:40:17;;;;;;;3.10;2.80;;;;;;;22.56;47.08;100279.84;1756893;81;21509;-68
2022/05/08 09:42:44;;;;;;;3.02;2.72;;;;;;;22.61;47.05;100287.78;1755917;81;21482;-68
2022/05/08 09:45:11;;;;;;;2.75;2.40;;;;;;;22.67;47.13;100282.23;1757072;81;21781;-67
2022/05/08 09:47:46;;;;;;;2.62;2.42;;;;;;;22.72;47.19;100283.72;1756865;81;24739;-67
2022/05/08 09:50:14;;;;;;;2.75;2.55;;;;;;;22.76;47.09;100291.67;1756978;81;21045;-66
2022/05/08 09:52:42;;;;;;;2.75;2.55;;;;;;;22.82;47.04;100287.20;1756995;81;21543;-67
2022/05/08 09:55:12;;;;;;;2.67;2.47;;;;;;;22.89;47.07;100287.06;1756962;81;21014;-68
2022/05/08 09:57:43;;;;;;;2.80;2.60;;;;;;;22.94;46.93;100276.36;1756775;81;21961;-67
2022/05/08 10:00:09;;;;;;;3.08;2.58;;;;;;;23.02;46.85;100276.52;1708069;83;21620;-67
2022/05/08 10:02:43;;;;;;;3.20;2.90;;;;;;;23.07;46.76;100268.55;1721181;83;21006;-68
2022/05/08 10:05:09;;;;;;;2.37;2.17;;;;;;;23.13;46.71;100273.83;1720841;83;21026;-68
2022/05/08 10:07:36;;;;;;;2.92;2.40;;;;;;;23.20;46.67;100279.14;1720812;83;21185;-68
2022/05/08 10:15:46;;;;;;;2.95;2.65;;;;;;;23.34;47.07;100263.42;1719968;83;21033;-67
2022/05/08 10:18:27;;;;;;;2.60;2.40;;;;;;;23.38;47.15;100269.20;1720824;83;21069;-67
2022/05/08 10:21:13;;;;;;;2.40;2.20;;;;;;;23.41;47.14;100264.63;1720976;83;21076;-66
2022/05/08 10:23:45;;;;;;;3.33;2.40;;;;;;;23.47;46.78;100264.51;1720814;83;21399;-68
2022/05/08 10:26:22;;;;;;;2.50;2.30;;;;;;;23.53;46.63;100264.89;1720859;83;21560;-67
2022/05/08 10:29:13;;;;;;;2.92;2.55;;;;;;;23.59;46.54;100258.23;1719619;83;21029;-67
2022/05/08 10:31:48;;;;;;;2.90;2.60;;;;;;;23.65;46.50;100253.19;1715286;83;21021;-66
2022/05/08 10:34:16;;;;;;;2.92;2.60;;;;;;;23.70;46.59;100254.11;1714767;83;21011;-67
2022/05/08 10:37:14;;;;;;;2.30;2.10;;;;;;;23.74;46.87;100250.38;1715366;83;21321;-67
2022/05/08 10:39:45;;;;;;;2.15;2.05;;;;;;;23.77;47.11;100251.78;1715256;83;21026;-68
2022/05/08 10:42:33;;;;;;;2.80;2.60;;;;;;;23.78;47.12;100242.08;1715359;83;21045;-67
2022/05/08 10:45:01;;;;;;;2.40;2.22;;;;;;;23.79;47.04;100238.28;1715303;83;21065;-68
2022/05/08 10:47:40;;;;;;;2.50;2.30;;;;;;;23.79;46.97;100243.70;1715116;83;21049;-67
2022/05/08 10:50:12;;;;;;;2.72;2.52;;;;;;;23.78;46.97;100247.50;1714485;83;21095;-68
2022/05/08 10:52:45;;;;;;;2.70;2.50;;;;;;;23.79;46.96;100242.89;1715240;83;21050;-67
2022/05/08 10:55:14;;;;;;;2.50;2.30;;;;;;;23.78;46.97;100240.72;1715208;83;21278;-68
2022/05/08 10:57:46;;;;;;;3.08;2.77;;;;;;;23.79;46.91;100237.47;1715546;83;21013;-67
2022/05/08 11:00:23;;;;;;;2.50;2.30;;;;;;;23.80;46.93;100233.67;1715500;83;20998;-68
2022/05/08 11:02:57;;;;;;;2.62;2.42;;;;;;;23.81;46.89;100231.27;1715450;83;21947;-67
2022/05/08 11:05:29;;;;;;;2.40;2.20;;;;;;;23.83;46.82;100225.06;1714941;83;21017;-68
2022/05/08 11:07:58;;;;;;;2.60;2.40;;;;;;;23.87;46.67;100223.50;1690905;83;21168;-68
2022/05/08 11:10:28;;;;;;;2.47;2.27;;;;;;;23.91;46.47;100219.23;1686822;85;21037;-68
2022/05/08 11:13:06;;;;;;;2.30;2.10;;;;;;;23.97;46.32;100217.42;1689686;82;21061;-67
2022/05/08 11:15:37;;;;;;;2.70;2.50;;;;;;;24.04;46.20;100209.41;1719892;82;21263;-67
2022/05/08 11:18:17;;;;;;;2.65;2.45;;;;;;;24.11;46.12;100200.59;1721417;83;21042;-68
2022/05/08 11:21:00;;;;;;;2.65;2.45;;;;;;;24.20;46.12;100200.98;1686125;85;21017;-68
2022/05/08 11:23:31;;;;;;;2.60;2.30;;;;;;;24.29;46.08;100206.83;1687409;83;21557;-68
2022/05/08 11:26:05;;;;;;;2.65;2.10;;;;;;;24.38;46.04;100189.58;1686317;85;21040;-67
2022/05/08 11:28:34;;;;;;;3.50;2.98;;;;;;;24.47;46.01;100197.08;1686854;85;21196;-68
2022/05/08 11:31:13;;;;;;;2.80;2.60;;;;;;;24.57;45.99;100198.31;1679338;85;21010;-68
2022/05/08 11:36:32;;;;;;;2.52;2.33;;;;;;;24.77;45.93;100192.36;1679207;85;21486;-67
2022/05/08 11:39:05;;;;;;;2.20;2.10;;;;;;;24.87;45.92;100189.22;1679434;85;21136;-67
2022/05/08 11:41:39;;;;;;;2.42;2.22;;;;;;;24.97;45.88;100180.92;1679887;84;21313;-68
2022/05/08 11:44:21;;;;;;;2.45;2.25;;;;;;;25.07;45.87;100177.80;1679157;85;21030;-67
2022/05/08 11:46:56;;;;;;;2.40;2.20;;;;;;;25.17;45.84;100183.90;1679178;85;21526;-67
2022/05/08 11:49:32;;;;;;;2.37;2.17;;;;;;;25.28;45.83;100175.34;1679368;85;21041;-68
2022/05/08 11:52:03;;;;;;;2.80;2.60;;;;;;;25.38;45.79;100169.19;1679361;85;21061;-67
2022/05/08 11:54:40;;;;;;;2.72;2.45;;;;;;;25.48;45.75;100158.43;1679735;85;21128;-67
2022/05/08 11:57:21;;;;;;;2.27;2.08;;;;;;;25.57;45.72;100163.66;1680438;84;21084;-67
2022/05/08 12:00:03;;;;;;;2.60;2.40;;;;;;;25.68;45.70;100158.61;1702968;84;21030;-68
2022/05/08 12:02:42;;;;;;;3.00;2.75;;;;;;;25.78;45.67;100169.31;1707834;83;21570;-67
2022/05/08 12:05:25;;;;;;;2.20;2.10;;;;;;;25.85;45.59;100165.84;1743535;81;21077;-68